• Join FlightAware (Why Join?)
  • Login
  • US Flag 
08:58PM EDT


 

Airport Tracker/Info


-or-


 

Live Flight TrackerFlight Track Log ✈ ACA289 ✈ 09-May-2013 ✈ CYVR - CYXY

Flight Track Log - Related Links

Times and Time Zones

All times are in EDT time to prevent confusion due to time zone crossing. See the ACA289 flight status page for this flight to view local times or setup timezone preferences in your user account.

Time Position Orientation Groundspeed Altitude Reporting Facility
EDT Latitude Longitude Course Direction KTS MPH feet Rate Location/Type
02:04PM 49.1667 -123.2333 270° West 160 184 1,400  Level Vancouver Center
02:05PM 49.1833 -123.3333 284° West 220 253 3,000 2,340 Climbing Vancouver Center
02:06PM 49.3610 -123.3638 342° North  Level FlightAware Approximate
02:06PM 49.2167 -123.3833 316° Northwest 220 253 6,100  Level Vancouver Center
02:07PM 49.4632 -123.4506 333° Northwest  Level FlightAware Approximate
02:07PM 49.2833 -123.3667 North 240 276 8,500  Level Vancouver Center
02:08PM 49.5656 -123.5368 338° Northwest  Level FlightAware Approximate
02:08PM 49.3667 -123.3667 360° North 280 322 10,700  Level Vancouver Center
02:09PM 49.6667 -123.6123 270° West  Level FlightAware Approximate
02:09PM 49.4500 -123.3333 15° North 340 391 11,800  Level Vancouver Center
02:10PM 49.5500 -123.3167 North 350 403 14,600 2,400 Climbing Vancouver Center
02:11PM 49.6500 -123.2833 12° North 360 414 16,600 1,860 Climbing Vancouver Center
02:12PM 49.7500 -123.2500 12° North 380 437 18,400 1,800 Climbing Vancouver Center
02:13PM 49.8500 -123.2833 348° North 380 437 20,300 1,800 Climbing Vancouver Center
02:14PM 49.9500 -123.3500 337° Northwest 390 449 22,100 1,740 Climbing Vancouver Center
02:15PM 50.0500 -123.4333 332° Northwest 390 449 23,800 1,680 Climbing Vancouver Center
02:16PM 50.1500 -123.5167 332° Northwest 400 460 25,500 1,500 Climbing Vancouver Center
02:17PM 50.2500 -123.5833 337° Northwest 400 460 26,800 1,140 Climbing Vancouver Center
02:18PM 50.3500 -123.6667 332° Northwest 410 472 27,800 1,080 Climbing Vancouver Center
02:19PM 50.4500 -123.7500 332° Northwest 410 472 29,000 1,320 Climbing Vancouver Center
02:20PM 50.5667 -123.8167 340° North 420 483 30,500 1,260 Climbing Vancouver Center
02:21PM 50.6667 -123.9000 332° Northwest 410 472 31,600 1,020 Climbing Vancouver Center
02:22PM 50.7667 -123.9833 332° Northwest 400 460 32,600 840 Climbing Vancouver Center
02:23PM 50.8667 -124.0667 332° Northwest 400 460 33,300 780 Climbing Vancouver Center
02:24PM 50.9667 -124.1500 332° Northwest 410 472 34,200 900 Climbing Vancouver Center
02:25PM 51.0667 -124.2167 337° Northwest 400 460 35,200 780 Climbing Vancouver Center
02:26PM 51.1667 -124.2833 337° Northwest 390 449 35,800 360 Climbing Vancouver Center
02:27PM 51.2667 -124.3833 328° Northwest 400 460 36,000 60 Climbing Vancouver Center
02:28PM 51.3667 -124.4333 343° North 410 472 36,000  Level Vancouver Center
02:29PM 51.4833 -124.5500 328° Northwest 420 483 36,000  Level Vancouver Center
02:30PM 51.5833 -124.6000 343° North 420 483 36,000  Level Vancouver Center
02:31PM 51.6833 -124.7167 324° Northwest 420 483 36,000  Level Vancouver Center
02:32PM 51.7833 -124.8000 333° Northwest 420 483 36,000  Level Vancouver Center
02:33PM 51.8833 -124.8833 333° Northwest 420 483 36,000  Level Vancouver Center
02:34PM 52.0000 -124.9667 336° Northwest 420 483 36,000  Level Vancouver Center
02:35PM 52.1000 -125.0500 333° Northwest 420 483 36,000  Level Vancouver Center
02:36PM 52.2000 -125.1333 333° Northwest 420 483 36,000  Level Vancouver Center
02:37PM 52.3000 -125.2167 333° Northwest 420 483 36,000  Level Vancouver Center
02:38PM 52.4000 -125.3000 333° Northwest 420 483 36,000  Level Vancouver Center
02:39PM 52.5167 -125.3833 337° Northwest 420 483 36,000  Level Vancouver Center
02:40PM 52.6167 -125.4667 333° Northwest 410 472 36,000  Level Vancouver Center
02:41PM 52.7167 -125.5667 329° Northwest 420 483 36,000  Level Vancouver Center
02:42PM 52.8333 -125.6500 337° Northwest 420 483 36,000  Level Vancouver Center
02:43PM 52.9333 -125.7333 333° Northwest 420 483 36,000  Level Vancouver Center
02:44PM 53.0333 -125.8167 333° Northwest 420 483 36,000  Level Vancouver Center
02:45PM 53.1333 -125.9167 329° Northwest 420 483 36,000  Level Vancouver Center
02:46PM 53.2333 -126.0333 325° Northwest 420 483 36,000  Level Vancouver Center
02:47PM 53.3333 -126.0833 343° North 420 483 36,000  Level Vancouver Center
02:48PM 53.4333 -126.2000 325° Northwest 420 483 36,000  Level Vancouver Center
02:49PM 53.5333 -126.3000 329° Northwest 420 483 36,000  Level Vancouver Center
02:50PM 53.6333 -126.3833 334° Northwest 420 483 36,000  Level Vancouver Center
02:51PM 53.7500 -126.4833 333° Northwest 420 483 36,000  Level Vancouver Center
02:52PM 53.8500 -126.5667 334° Northwest 420 483 36,000  Level Vancouver Center
02:53PM 53.9500 -126.6667 330° Northwest 420 483 36,000  Level Vancouver Center
02:54PM 54.0500 -126.7500 334° Northwest 410 472 36,000  Level Vancouver Center
02:55PM 54.1500 -126.8500 330° Northwest 420 483 36,000  Level Vancouver Center
02:56PM 54.2500 -126.9333 334° Northwest 420 483 36,000  Level Vancouver Center
02:57PM 54.3500 -127.0333 330° Northwest 420 483 36,000  Level Vancouver Center
02:58PM 54.4667 -127.1333 334° Northwest 420 483 36,000  Level Vancouver Center
02:59PM 54.5667 -127.2167 334° Northwest 420 483 36,000  Level Vancouver Center
03:00PM 54.6500 -127.3167 325° Northwest 410 472 36,000  Level Vancouver Center
03:01PM 54.7667 -127.4167 334° Northwest 410 472 36,000  Level Vancouver Center
03:02PM 54.8667 -127.5333 326° Northwest 440 506 36,000  Level Vancouver Center
03:03PM 54.9667 -127.6333 330° Northwest 420 483 36,000  Level Vancouver Center
03:04PM 55.0667 -127.7333 330° Northwest 420 483 36,000  Level Vancouver Center
03:05PM 55.1833 -127.8333 334° Northwest 420 483 36,000  Level Vancouver Center
03:06PM 55.2833 -127.9333 330° Northwest 420 483 36,000  Level Vancouver Center
03:07PM 55.3833 -128.0167 335° Northwest 400 460 36,000  Level Vancouver Center
03:08PM 55.4667 -128.1167 326° Northwest 430 495 36,000  Level Vancouver Center
03:09PM 55.5667 -128.2167 331° Northwest 420 483 36,000  Level Vancouver Center
03:10PM 55.6833 -128.3167 334° Northwest 410 472 36,000  Level Vancouver Center
03:11PM 55.7833 -128.4167 331° Northwest 410 472 36,000  Level Vancouver Center
03:12PM 55.8833 -128.5167 331° Northwest 400 460 36,000  Level Vancouver Center
03:13PM 55.9667 -128.6167 326° Northwest 410 472 36,000  Level Vancouver Center
03:14PM 56.0667 -128.7167 331° Northwest 400 460 36,000  Level Vancouver Center
03:15PM 56.1667 -128.8333 327° Northwest 400 460 36,000  Level Vancouver Center
03:16PM 56.2667 -128.9333 331° Northwest 400 460 36,000  Level Vancouver Center
03:17PM 56.3500 -129.0333 326° Northwest 410 472 36,000  Level Vancouver Center
03:18PM 56.4500 -129.1333 331° Northwest 400 460 36,000  Level Vancouver Center
03:19PM 56.5500 -129.2333 331° Northwest 400 460 36,000  Level Vancouver Center
03:20PM 56.6333 -129.3167 331° Northwest 400 460 36,000  Level Vancouver Center
03:21PM 56.7333 -129.4167 331° Northwest 400 460 36,000  Level Vancouver Center
03:22PM 56.8167 -129.5500 319° Northwest 400 460 36,000  Level Vancouver Center
03:23PM 56.9167 -129.6500 331° Northwest 400 460 36,000  Level Vancouver Center
03:25PM 57.0811 -129.8564 326° Northwest  Level FlightAware Approximate
03:32PM 57.7046 -130.6654 324° Northwest  Level FlightAware Approximate
03:33PM 57.7919 -130.7868 323° Northwest  Level FlightAware Approximate
03:34PM 57.8790 -130.9088 323° Northwest  Level FlightAware Approximate
03:35PM 57.9660 -131.0314 323° Northwest  Level FlightAware Approximate
03:36PM 58.0529 -131.1545 323° Northwest  Level FlightAware Approximate
03:37PM 58.1396 -131.2783 323° Northwest  Level FlightAware Approximate
03:38PM 58.2263 -131.4027 323° Northwest  Level FlightAware Approximate
03:39PM 58.3128 -131.5277 323° Northwest  Level FlightAware Approximate
03:40PM 58.4001 -131.6509 324° Northwest  Level FlightAware Approximate
03:41PM 58.4874 -131.7746 323° Northwest  Level FlightAware Approximate
03:42PM 58.5745 -131.8990 323° Northwest  Level FlightAware Approximate
03:43PM 58.6610 -132.0252 322° Northwest  Level FlightAware Approximate
03:44PM 58.7464 -132.1546 322° Northwest  Level FlightAware Approximate
03:45PM 58.8316 -132.2846 322° Northwest  Level FlightAware Approximate
03:46PM 58.9167 -132.4153 322° Northwest  Level FlightAware Approximate
03:47PM 59.0037 -132.5417 324° Northwest  Level FlightAware Approximate
03:48PM 59.0902 -132.6694 322° Northwest  Level FlightAware Approximate
03:49PM 59.1754 -132.8009 322° Northwest  Level FlightAware Approximate
03:50PM 59.2602 -132.9336 320° Northwest  Level FlightAware Approximate
03:51PM 59.3448 -133.0671 323° Northwest  Level FlightAware Approximate
03:52PM 59.4289 -133.2020 322° Northwest  Level FlightAware Approximate
03:53PM 59.5146 -133.3334 322° Northwest  Level FlightAware Approximate
03:54PM 59.6003 -133.4654 322° Northwest  Level FlightAware Approximate
03:55PM 59.6848 -133.6005 321° Northwest  Level FlightAware Approximate
03:56PM 59.7686 -133.7376 321° Northwest  Level FlightAware Approximate
03:57PM 59.8527 -133.8745 321° Northwest  Level FlightAware Approximate
03:58PM 59.9372 -134.0107 321° Northwest  Level FlightAware Approximate
03:59PM 60.0216 -134.1476 321° Northwest  Level FlightAware Approximate
04:00PM 60.1045 -134.2884 320° Northwest  Level FlightAware Approximate
04:01PM 60.1891 -134.4251 323° Northwest  Level FlightAware Approximate
04:02PM 60.2762 -134.5559 323° Northwest  Level FlightAware Approximate
04:03PM 60.3598 -134.6961 320° Northwest  Level FlightAware Approximate
04:04PM 60.4429 -134.8378 320° Northwest  Level FlightAware Approximate
04:05PM 60.5276 -134.9758 321° Northwest  Level FlightAware Approximate
04:06PM 60.6021 -135.1187 334° Northwest  Level FlightAware Approximate
04:07PM 60.7000 -135.0667 18° North  Level FlightAware Approximate
04:08PM 60.7095 -135.0673 18° North  Level Estimated
04:09PM 60.7095 -135.0673 18° North  Level Estimated
04:10PM 60.7095 -135.0673 18° North  Level Estimated
04:11PM 60.7095 -135.0673 18° North  Level Estimated
04:12PM 60.7095 -135.0673 18° North  Level Estimated
04:13PM 60.7095 -135.0673 18° North  Level Estimated
04:14PM 60.7095 -135.0673 18° North  Level Estimated
04:15PM 60.7095 -135.0673 18° North  Level Estimated
04:16PM 60.7095 -135.0673 18° North  Level Estimated